Time;durP1;ratioP1;P1;durP2;ratioP2;P2;SDS_P1;SDS_P2;PMS_P1;PMS_P2;Temp;Humidity;BMP_temperature;BMP_pressure;BME280_temperature;BME280_humidity;BME280_pressure;Samples;Min_cycle;Max_cycle;Signal;HPM_P1;HPM_P2
2022/12/22 05:00:33;;;;;;;1.33;1.23;;;10.70;99.90;;;;;;6061241;23;20396;31
2022/12/22 05:03:01;;;;;;;2.50;1.40;;;10.70;99.90;;;;;;4907206;29;20255;-73
2022/12/22 05:05:28;;;;;;;2.73;1.33;;;10.70;99.90;;;;;;4909269;29;21042;-73
2022/12/22 05:07:55;;;;;;;2.03;1.40;;;10.70;99.90;;;;;;4908504;29;20455;-74
2022/12/22 05:10:21;;;;;;;6.10;1.57;;;10.70;99.90;;;;;;4908979;29;20474;-74
2022/12/22 05:12:54;;;;;;;3.03;1.37;;;10.70;99.90;;;;;;4909319;29;20507;-73
2022/12/22 05:15:21;;;;;;;4.67;1.40;;;10.70;99.90;;;;;;4908874;29;20467;-74
2022/12/22 05:17:48;;;;;;;4.60;1.70;;;10.60;99.90;;;;;;4908328;29;20955;-73
2022/12/22 05:20:16;;;;;;;2.80;1.33;;;10.60;99.90;;;;;;4907444;29;20459;-74
2022/12/22 05:22:44;;;;;;;3.23;1.53;;;10.60;99.90;;;;;;4908980;29;20471;-74
2022/12/22 05:25:11;;;;;;;4.10;2.40;;;10.60;99.90;;;;;;4909383;29;20455;-73
2022/12/22 05:27:37;;;;;;;1.57;1.37;;;10.60;99.90;;;;;;4908605;29;20459;-73
2022/12/22 05:30:06;;;;;;;4.40;1.40;;;10.50;99.90;;;;;;4908865;29;20967;-73
2022/12/22 05:32:32;;;;;;;2.23;1.37;;;10.50;99.90;;;;;;4908718;29;20507;-73
2022/12/22 05:34:59;;;;;;;6.17;2.37;;;10.40;99.90;;;;;;4908419;29;20856;-73
2022/12/22 05:37:27;;;;;;;2.03;1.57;;;10.50;99.90;;;;;;4908163;29;20994;-73
2022/12/22 05:39:54;;;;;;;4.13;1.60;;;10.40;99.90;;;;;;4909121;29;20915;-73
2022/12/22 05:45:06;;;;;;;5.13;1.20;;;10.50;99.90;;;;;;4908889;29;20470;-73
2022/12/22 05:47:33;;;;;;;4.83;1.60;;;10.50;99.90;;;;;;4908627;29;20443;-73
2022/12/22 05:50:00;;;;;;;2.33;1.43;;;10.60;99.90;;;;;;4909184;29;20463;-74
2022/12/22 05:52:28;;;;;;;4.60;1.60;;;10.60;99.90;;;;;;4908583;29;20495;-74
2022/12/22 05:54:55;;;;;;;3.67;1.60;;;10.60;99.90;;;;;;4908510;29;20455;-74
2022/12/22 05:57:22;;;;;;;2.40;1.20;;;10.60;99.90;;;;;;4908490;29;20475;-73
2022/12/22 05:59:49;;;;;;;2.80;1.40;;;10.60;99.90;;;;;;4908597;29;20468;-73
2022/12/22 06:02:16;;;;;;;4.60;1.50;;;10.70;99.90;;;;;;4923731;29;20486;-73
2022/12/22 06:04:42;;;;;;;2.17;1.27;;;10.70;99.90;;;;;;4927816;29;20471;-74
2022/12/22 06:07:09;;;;;;;3.70;1.40;;;10.70;99.90;;;;;;4926943;29;20450;-74
2022/12/22 06:09:37;;;;;;;5.03;1.30;;;10.80;99.90;;;;;;4927476;29;20458;-74
2022/12/22 06:12:05;;;;;;;3.63;1.50;;;10.80;99.90;;;;;;4927051;29;20506;-73
2022/12/22 06:14:32;;;;;;;4.30;1.40;;;10.70;99.90;;;;;;4928727;29;20465;-74
2022/12/22 06:16:59;;;;;;;4.33;1.63;;;10.80;99.90;;;;;;4930873;29;20469;-73
2022/12/22 06:19:26;;;;;;;2.10;1.63;;;10.70;99.90;;;;;;4931329;29;20456;-73
2022/12/22 06:21:52;;;;;;;6.03;1.33;;;10.70;99.90;;;;;;4931227;29;20477;-73
2022/12/22 06:24:19;;;;;;;3.33;1.63;;;10.70;99.90;;;;;;4931386;29;20458;-73
2022/12/22 06:26:48;;;;;;;1.67;1.30;;;10.70;99.90;;;;;;4930192;29;20837;-73
2022/12/22 06:29:14;;;;;;;2.80;1.47;;;10.70;99.90;;;;;;4931091;29;20465;-73
2022/12/22 06:31:41;;;;;;;3.43;1.57;;;10.70;99.90;;;;;;4931071;29;20489;-73
2022/12/22 06:34:09;;;;;;;4.30;1.60;;;10.70;99.90;;;;;;4930964;29;20827;-73
2022/12/22 06:36:37;;;;;;;3.60;1.67;;;10.70;99.90;;;;;;4930492;29;20816;-73
2022/12/22 06:39:04;;;;;;;4.77;1.67;;;10.70;99.90;;;;;;4930718;29;20965;-73
2022/12/22 06:44:16;;;;;;;8.93;1.50;;;10.80;99.90;;;;;;4930848;29;20422;-73
2022/12/22 06:46:43;;;;;;;4.67;1.90;;;10.80;99.90;;;;;;4930010;29;20454;-73
2022/12/22 06:49:10;;;;;;;4.57;2.13;;;10.80;99.90;;;;;;4930270;29;20469;-73
2022/12/22 06:51:36;;;;;;;2.10;1.73;;;10.80;99.90;;;;;;4930383;29;20477;-73
2022/12/22 06:54:03;;;;;;;7.67;1.80;;;10.80;99.90;;;;;;4930509;29;20466;-73
2022/12/22 06:56:30;;;;;;;5.47;1.70;;;10.80;99.90;;;;;;4930032;29;20830;-73
2022/12/22 06:58:57;;;;;;;6.20;2.03;;;10.80;99.90;;;;;;4930622;29;20462;-73
2022/12/22 07:01:25;;;;;;;6.40;1.97;;;10.80;99.90;;;;;;4930581;29;20512;-73
2022/12/22 07:03:52;;;;;;;5.90;1.70;;;10.80;99.90;;;;;;4930339;29;20454;-73
2022/12/22 07:06:19;;;;;;;4.80;1.73;;;10.80;99.90;;;;;;4929314;29;21171;-73
2022/12/22 07:08:46;;;;;;;3.57;1.83;;;10.80;99.90;;;;;;4928894;29;20471;-65
2022/12/22 07:11:13;;;;;;;7.80;2.13;;;10.80;99.90;;;;;;4929572;29;20478;-65
2022/12/22 07:13:41;;;;;;;12.97;2.27;;;10.80;99.90;;;;;;4929404;29;20498;-65
2022/12/22 07:16:09;;;;;;;4.67;1.60;;;10.80;99.90;;;;;;4929069;29;20459;-73
2022/12/22 07:18:39;;;;;;;5.50;2.57;;;10.90;99.90;;;;;;4929472;29;21017;-73
2022/12/22 07:21:08;;;;;;;5.10;2.03;;;10.90;99.90;;;;;;4929180;29;20478;-72
2022/12/22 07:23:36;;;;;;;6.70;1.97;;;11.00;99.90;;;;;;4929531;29;20454;-73
2022/12/22 07:26:03;;;;;;;5.80;1.80;;;11.00;99.90;;;;;;4928303;29;21025;-73
2022/12/22 07:28:32;;;;;;;7.00;1.93;;;11.00;99.90;;;;;;4929228;29;20986;-73
2022/12/22 07:30:59;;;;;;;11.03;2.30;;;11.00;99.90;;;;;;4929206;29;20492;-73
2022/12/22 07:33:26;;;;;;;6.03;2.03;;;11.00;99.90;;;;;;4928929;29;20500;-73
2022/12/22 07:36:07;;;;;;;5.17;1.80;;;11.00;99.90;;;;;;4928869;29;20469;-72
2022/12/22 07:38:35;;;;;;;6.07;1.90;;;11.10;99.90;;;;;;4928659;29;20449;-72
2022/12/22 07:41:02;;;;;;;7.30;1.80;;;11.00;99.90;;;;;;4929073;29;20487;-71
2022/12/22 07:43:28;;;;;;;7.13;1.77;;;11.10;99.90;;;;;;4928835;29;20951;-71
2022/12/22 07:45:55;;;;;;;11.70;2.10;;;11.10;99.90;;;;;;4927915;29;20465;-71
2022/12/22 07:51:07;;;;;;;8.43;2.17;;;11.00;99.90;;;;;;4929125;29;20458;-71
2022/12/22 07:53:34;;;;;;;4.17;1.90;;;11.10;99.90;;;;;;4928854;29;20498;-71
2022/12/22 07:56:05;;;;;;;8.90;1.70;;;11.10;99.90;;;;;;4928721;29;20448;-70
2022/12/22 07:58:32;;;;;;;6.37;1.73;;;11.10;99.90;;;;;;4929420;29;20229;-71
2022/12/22 08:01:00;;;;;;;6.87;1.90;;;11.20;99.90;;;;;;4929372;29;20486;-71
2022/12/22 08:03:27;;;;;;;7.13;2.60;;;11.20;99.90;;;;;;4929669;29;20529;-71
2022/12/22 08:05:54;;;;;;;5.40;2.50;;;11.20;99.90;;;;;;4929045;29;20459;-70
2022/12/22 08:08:22;;;;;;;5.50;2.03;;;11.20;99.90;;;;;;4929043;29;20455;-71
2022/12/22 08:10:49;;;;;;;5.97;2.20;;;11.20;99.90;;;;;;4929462;29;21400;-70
2022/12/22 08:13:15;;;;;;;8.00;2.00;;;11.20;99.90;;;;;;4929302;29;20488;-70
2022/12/22 08:15:42;;;;;;;6.37;1.80;;;11.20;99.90;;;;;;4929356;29;20465;-71
2022/12/22 08:18:09;;;;;;;6.20;2.17;;;11.20;99.90;;;;;;4929167;29;20839;-71
2022/12/22 08:20:36;;;;;;;9.03;2.90;;;11.20;99.90;;;;;;4928539;29;20714;-71
2022/12/22 08:23:02;;;;;;;8.07;2.00;;;11.20;99.90;;;;;;4929251;29;20469;-74
2022/12/22 08:25:33;;;;;;;5.73;1.93;;;11.10;99.90;;;;;;4929900;29;20570;-71
2022/12/22 08:28:00;;;;;;;8.10;2.17;;;11.20;99.90;;;;;;4929001;29;20465;-71
2022/12/22 08:30:27;;;;;;;9.33;2.40;;;11.20;99.90;;;;;;4929223;29;21443;-71
2022/12/22 08:32:54;;;;;;;4.90;1.83;;;11.20;99.90;;;;;;4929397;29;20501;-71
2022/12/22 08:35:21;;;;;;;8.47;2.20;;;11.30;99.90;;;;;;4929813;29;20470;-71
2022/12/22 08:37:49;;;;;;;4.60;1.57;;;11.30;99.90;;;;;;4927847;29;20932;-71
2022/12/22 08:40:20;;;;;;;4.23;1.87;;;11.30;99.90;;;;;;4929258;29;20454;-71
2022/12/22 08:42:52;;;;;;;5.90;1.80;;;11.30;99.90;;;;;;4929743;29;20458;-72
2022/12/22 08:45:18;;;;;;;5.30;1.97;;;11.30;99.90;;;;;;4930363;29;20462;-72
2022/12/22 08:47:45;;;;;;;6.23;1.80;;;11.40;99.90;;;;;;4929801;29;20465;-72
2022/12/22 08:50:12;;;;;;;4.13;1.50;;;11.40;99.90;;;;;;4931678;29;20457;-72
2022/12/22 08:52:39;;;;;;;4.03;1.90;;;11.30;99.90;;;;;;4930630;29;20505;-72
2022/12/22 08:55:08;;;;;;;4.50;2.43;;;11.40;99.90;;;;;;4930403;29;20466;-74
2022/12/22 08:57:34;;;;;;;7.83;2.83;;;11.30;99.90;;;;;;4928673;29;20465;-73
2022/12/22 09:00:04;;;;;;;7.30;3.00;;;11.30;99.90;;;;;;4929489;29;20460;-68
2022/12/22 09:02:32;;;;;;;6.80;2.70;;;11.20;99.90;;;;;;4928676;29;20949;-68
2022/12/22 09:04:58;;;;;;;7.13;2.47;;;11.20;99.90;;;;;;4929887;29;20583;-75
2022/12/22 09:07:25;;;;;;;9.67;2.10;;;11.20;99.90;;;;;;4928999;29;20458;-77
2022/12/22 09:09:53;;;;;;;6.47;1.73;;;11.20;99.90;;;;;;4930168;29;20458;-76
2022/12/22 09:12:20;;;;;;;5.23;1.70;;;11.20;99.90;;;;;;4932173;29;20565;-77
2022/12/22 09:14:46;;;;;;;10.00;1.90;;;11.20;99.90;;;;;;4930701;29;20558;-78
2022/12/22 09:17:15;;;;;;;6.60;1.83;;;11.20;99.90;;;;;;4930332;29;20454;-74
2022/12/22 09:19:41;;;;;;;10.87;1.77;;;11.20;99.90;;;;;;4930376;29;20458;-76
2022/12/22 09:22:10;;;;;;;6.20;1.80;;;11.30;99.90;;;;;;4931807;29;20478;-77
2022/12/22 09:24:36;;;;;;;5.63;2.50;;;11.20;99.90;;;;;;4929726;29;20561;-75
2022/12/22 09:27:05;;;;;;;4.33;1.60;;;11.20;99.90;;;;;;4927923;29;20525;-76
2022/12/22 09:29:32;;;;;;;9.50;3.20;;;11.30;99.90;;;;;;4930051;29;20458;-75
2022/12/22 09:31:58;;;;;;;5.80;2.60;;;11.30;99.90;;;;;;4928912;29;20481;-78
2022/12/22 09:34:27;;;;;;;7.70;2.30;;;11.30;99.90;;;;;;4929084;29;20502;-74
2022/12/22 09:36:53;;;;;;;9.07;2.10;;;11.30;99.90;;;;;;4927679;29;20845;-72
2022/12/22 09:39:20;;;;;;;5.43;2.00;;;11.20;99.90;;;;;;4934071;29;20461;-72
2022/12/22 09:41:50;;;;;;;7.93;1.90;;;11.20;99.90;;;;;;4947325;29;20484;-72
2022/12/22 09:44:24;;;;;;;8.97;2.23;;;11.10;99.90;;;;;;4945970;29;21281;-71
2022/12/22 09:46:52;;;;;;;8.30;1.97;;;11.00;99.90;;;;;;4945881;29;20445;-73
2022/12/22 09:49:19;;;;;;;8.93;2.70;;;11.00;99.90;;;;;;4948042;28;20468;-72
2022/12/22 09:51:51;;;;;;;11.97;2.20;;;10.90;99.90;;;;;;4950815;29;20485;-72
2022/12/22 09:54:18;;;;;;;10.00;2.50;;;10.90;99.90;;;;;;4950408;29;20482;-72
2022/12/22 09:56:45;;;;;;;10.00;2.10;;;10.90;99.90;;;;;;4949680;29;20453;-72
2022/12/22 09:59:14;;;;;;;3.97;1.87;;;10.90;99.90;;;;;;4950708;29;20959;-73
2022/12/22 10:02:01;;;;;;;6.30;2.00;;;10.90;99.90;;;;;;4950619;29;20493;-73
2022/12/22 10:04:53;;;;;;;5.40;1.80;;;10.90;99.90;;;;;;4950720;29;20957;-73
2022/12/22 10:07:27;;;;;;;8.13;2.10;;;10.80;99.90;;;;;;4950460;29;20512;-73
2022/12/22 10:09:54;;;;;;;5.10;2.30;;;10.80;99.90;;;;;;4950571;29;20453;-72
2022/12/22 10:12:23;;;;;;;8.97;2.17;;;10.80;99.90;;;;;;4950661;29;20842;-71
2022/12/22 10:14:52;;;;;;;5.93;1.70;;;10.70;99.90;;;;;;4950803;29;20507;-71
2022/12/22 10:17:22;;;;;;;9.93;2.27;;;10.70;99.90;;;;;;4949874;29;20476;-73
2022/12/22 10:19:51;;;;;;;8.57;2.50;;;10.70;99.90;;;;;;4950552;29;20950;-73
2022/12/22 10:22:28;;;;;;;9.13;2.20;;;10.70;99.90;;;;;;4950389;29;20469;-73
2022/12/22 10:24:55;;;;;;;6.60;2.20;;;10.60;99.90;;;;;;4951375;28;20449;-73
2022/12/22 10:27:26;;;;;;;11.00;2.87;;;10.50;99.90;;;;;;4950161;28;20461;-72
2022/12/22 10:29:53;;;;;;;10.70;2.20;;;10.50;99.90;;;;;;4950263;29;20468;-73
2022/12/22 10:32:21;;;;;;;5.17;2.10;;;10.50;99.90;;;;;;4950242;29;20482;-73
2022/12/22 10:35:00;;;;;;;11.73;2.20;;;10.50;99.90;;;;;;4949932;29;20848;-73
2022/12/22 10:37:37;;;;;;;9.23;2.13;;;10.40;99.90;;;;;;4949449;29;20453;-71
2022/12/22 10:40:15;;;;;;;8.83;2.60;;;10.40;99.90;;;;;;4949975;29;20460;-74
2022/12/22 10:42:47;;;;;;;8.33;2.70;;;10.40;99.90;;;;;;4931480;29;20469;-71
2022/12/22 10:45:19;;;;;;;8.17;2.63;;;10.30;99.90;;;;;;4930789;29;20462;-71
2022/12/22 10:47:49;;;;;;;5.57;2.13;;;10.30;99.90;;;;;;4931168;29;20917;-73
2022/12/22 10:50:17;;;;;;;5.30;1.67;;;10.30;99.90;;;;;;4927976;29;20448;-73
2022/12/22 10:52:52;;;;;;;4.97;1.87;;;10.20;99.90;;;;;;4922371;29;20455;-73
2022/12/22 10:55:20;;;;;;;4.73;2.40;;;10.30;99.90;;;;;;4920929;29;20532;-73
2022/12/22 10:57:47;;;;;;;11.63;4.13;;;10.30;99.90;;;;;;4925470;29;20458;-73
2022/12/22 11:00:24;;;;;;;3.87;1.83;;;10.20;99.90;;;;;;4932008;29;20454;-73
2022/12/22 11:02:52;;;;;;;10.07;2.40;;;10.30;99.90;;;;;;4928134;29;20453;-73
2022/12/22 11:05:19;;;;;;;5.80;1.93;;;10.30;99.90;;;;;;4925587;29;20455;-73
2022/12/22 11:07:47;;;;;;;6.27;1.93;;;10.30;99.90;;;;;;4916579;29;20463;-74
2022/12/22 11:10:25;;;;;;;5.30;1.40;;;10.30;99.90;;;;;;4921762;29;20498;-73
2022/12/22 11:13:06;;;;;;;8.53;1.90;;;10.30;99.90;;;;;;4930843;29;20459;-72
2022/12/22 11:15:40;;;;;;;3.70;2.13;;;10.30;99.90;;;;;;4931119;29;20453;-72
2022/12/22 11:18:23;;;;;;;7.53;1.80;;;10.30;99.90;;;;;;4929560;29;20934;-73
2022/12/22 11:20:59;;;;;;;4.70;2.57;;;10.30;99.90;;;;;;4930858;29;20474;-72
2022/12/22 11:23:34;;;;;;;4.57;1.87;;;10.30;99.90;;;;;;4930065;29;21343;-74
2022/12/22 11:26:11;;;;;;;8.13;2.07;;;10.40;99.90;;;;;;4932041;29;20466;-73
2022/12/22 11:28:54;;;;;;;3.07;1.53;;;10.40;99.90;;;;;;4931492;29;20453;-73
2022/12/22 11:31:37;;;;;;;2.90;1.60;;;10.40;99.90;;;;;;4930896;29;20478;-74
2022/12/22 11:34:15;;;;;;;3.10;1.93;;;10.40;99.90;;;;;;4930795;29;20489;-74
2022/12/22 11:36:57;;;;;;;7.07;2.07;;;10.50;99.90;;;;;;4933754;29;20513;-74
2022/12/22 11:39:37;;;;;;;3.30;1.80;;;10.50;99.90;;;;;;4930829;29;20463;-74
2022/12/22 11:42:35;;;;;;;7.87;2.20;;;10.50;99.90;;;;;;4933562;29;20478;-74
2022/12/22 11:45:29;;;;;;;4.23;1.63;;;10.50;99.90;;;;;;4934114;29;20442;-73
2022/12/22 11:48:06;;;;;;;6.80;2.00;;;10.50;99.90;;;;;;4934308;29;20478;-74
2022/12/22 11:50:40;;;;;;;6.77;1.70;;;10.50;99.90;;;;;;4933227;29;20473;-73
2022/12/22 11:53:22;;;;;;;4.90;1.90;;;10.50;99.90;;;;;;4931924;29;20484;-73
2022/12/22 11:56:06;;;;;;;9.37;1.77;;;10.50;99.90;;;;;;4923285;29;20447;-74
2022/12/22 11:58:51;;;;;;;3.63;1.40;;;10.60;99.90;;;;;;4914437;29;20917;-66
2022/12/22 12:01:34;;;;;;;6.30;1.80;;;10.60;99.90;;;;;;4910209;29;20545;-66
2022/12/22 12:04:32;;;;;;;5.97;2.20;;;10.60;99.90;;;;;;4910814;29;20447;-73
2022/12/22 12:07:13;;;;;;;4.27;1.60;;;10.60;99.90;;;;;;4909490;29;20520;-73
2022/12/22 12:09:51;;;;;;;3.70;1.83;;;10.60;99.90;;;;;;4910589;29;20439;-73
2022/12/22 12:12:26;;;;;;;6.63;2.00;;;10.60;99.90;;;;;;4917835;29;20478;-73
2022/12/22 12:15:07;;;;;;;3.10;1.63;;;10.70;99.90;;;;;;4927104;29;20482;-73
2022/12/22 12:17:49;;;;;;;6.53;1.80;;;10.70;99.90;;;;;;4929040;29;20465;-71
2022/12/22 12:20:37;;;;;;;4.23;2.53;;;10.70;99.90;;;;;;4929049;29;20443;-66
2022/12/22 12:23:17;;;;;;;5.10;1.70;;;10.70;99.90;;;;;;4929286;29;20434;-73
2022/12/22 12:25:52;;;;;;;4.60;1.90;;;10.70;99.90;;;;;;4929213;29;20454;-72
2022/12/22 12:28:24;;;;;;;4.63;1.60;;;10.70;99.90;;;;;;4923625;29;20451;-73
2022/12/22 12:30:55;;;;;;;4.40;1.80;;;10.80;99.90;;;;;;4919693;29;20542;-73
2022/12/22 12:33:36;;;;;;;2.30;1.50;;;10.80;99.90;;;;;;4930787;29;20537;-73
2022/12/22 12:36:10;;;;;;;2.17;1.70;;;10.80;99.90;;;;;;4929269;29;20630;-73
2022/12/22 12:38:45;;;;;;;2.23;1.30;;;10.80;99.90;;;;;;4933351;29;20505;-73
2022/12/22 12:41:20;;;;;;;2.00;1.30;;;10.90;99.90;;;;;;4927767;29;20484;-74
2022/12/22 12:43:50;;;;;;;2.03;1.60;;;10.90;99.90;;;;;;4927814;29;20450;-72
2022/12/22 12:47:00;;;;;;;3.87;1.50;;;11.00;99.90;;;;;;4928440;29;20459;-73
2022/12/22 12:49:57;;;;;;;8.83;1.90;;;11.00;99.90;;;;;;4909453;29;20560;-74
2022/12/22 12:53:15;;;;;;;3.60;1.67;;;11.00;99.90;;;;;;4928057;29;20474;-72
2022/12/22 12:56:04;;;;;;;4.23;1.40;;;11.00;99.90;;;;;;4897318;29;20503;-73
2022/12/22 12:58:52;;;;;;;3.03;1.50;;;11.00;99.90;;;;;;4909195;29;20470;-73
2022/12/22 13:01:53;;;;;;;1.73;1.13;;;11.00;99.90;;;;;;4908984;29;20496;-73
2022/12/22 13:05:08;;;;;;;5.17;1.23;;;11.00;99.90;;;;;;4908648;29;20439;-73
2022/12/22 13:08:08;;;;;;;3.50;1.10;;;11.10;99.90;;;;;;4897656;29;20551;-73
2022/12/22 13:10:38;;;;;;;3.57;1.60;;;11.10;99.90;;;;;;4908828;29;20482;-73
2022/12/22 13:13:05;;;;;;;4.17;1.57;;;11.10;99.90;;;;;;4920817;29;20451;-73
2022/12/22 13:15:33;;;;;;;3.90;1.60;;;11.10;99.90;;;;;;4927061;29;20494;-71
2022/12/22 13:18:02;;;;;;;7.33;1.53;;;11.10;99.90;;;;;;4926623;29;20458;-71
2022/12/22 13:20:32;;;;;;;2.80;1.60;;;11.10;99.90;;;;;;4927452;29;20461;-73
2022/12/22 13:23:00;;;;;;;3.40;1.70;;;11.10;99.90;;;;;;4927671;29;21300;-72
2022/12/22 13:25:41;;;;;;;2.93;1.80;;;11.20;99.90;;;;;;4931321;29;20565;-71
2022/12/22 13:28:15;;;;;;;3.93;1.80;;;11.10;99.90;;;;;;4929558;29;20469;-71
2022/12/22 13:30:46;;;;;;;3.30;1.40;;;11.20;99.90;;;;;;4931006;29;20477;-72
2022/12/22 13:33:16;;;;;;;4.40;1.60;;;11.20;99.90;;;;;;4931624;29;20449;-72
2022/12/22 13:35:43;;;;;;;9.33;1.57;;;11.20;99.90;;;;;;4931254;29;20501;-71
2022/12/22 13:38:27;;;;;;;3.57;1.77;;;11.10;99.90;;;;;;4930411;29;20460;-73
2022/12/22 13:40:57;;;;;;;8.50;1.70;;;11.10;99.90;;;;;;4930894;29;20478;-73
2022/12/22 13:43:26;;;;;;;9.33;2.00;;;11.20;99.90;;;;;;4913627;29;20501;-73
2022/12/22 13:45:55;;;;;;;6.10;1.93;;;11.10;99.90;;;;;;4930722;29;20454;-73
2022/12/22 13:48:27;;;;;;;5.60;1.63;;;11.20;99.90;;;;;;4930985;29;20455;-71
2022/12/22 13:50:57;;;;;;;1.97;1.20;;;11.20;99.90;;;;;;4930708;29;20474;-72
2022/12/22 13:53:32;;;;;;;4.70;1.60;;;11.10;99.90;;;;;;4930778;29;20449;-72
2022/12/22 13:56:01;;;;;;;6.87;1.80;;;11.20;99.90;;;;;;4930154;29;20498;-73
2022/12/22 13:58:30;;;;;;;3.90;1.60;;;11.20;99.90;;;;;;4930752;29;20462;-73
2022/12/22 14:01:16;;;;;;;4.50;1.43;;;11.10;99.90;;;;;;4930790;29;20486;-72
2022/12/22 14:03:49;;;;;;;5.53;1.50;;;11.10;99.90;;;;;;4930632;29;20442;-73
2022/12/22 14:06:27;;;;;;;5.73;1.90;;;11.10;99.90;;;;;;4930501;29;20454;-73
2022/12/22 14:09:08;;;;;;;9.73;7.03;;;11.10;99.90;;;;;;4931391;29;20465;-73
2022/12/22 14:11:37;;;;;;;9.10;2.83;;;11.10;99.90;;;;;;4930321;29;20902;-73
2022/12/22 14:14:07;;;;;;;6.97;2.57;;;11.10;99.90;;;;;;4931436;29;20481;-72
2022/12/22 14:16:34;;;;;;;7.17;4.20;;;11.10;99.90;;;;;;4929550;29;20439;-72
2022/12/22 14:19:01;;;;;;;10.93;6.30;;;11.10;99.90;;;;;;4931570;29;20446;-74
2022/12/22 14:21:28;;;;;;;6.23;2.50;;;11.10;99.90;;;;;;4931076;29;20481;-73
2022/12/22 14:23:55;;;;;;;4.40;2.43;;;11.10;99.90;;;;;;4930942;29;20458;-72
2022/12/22 14:26:26;;;;;;;35.90;27.03;;;11.10;99.90;;;;;;4930103;29;20466;-71
2022/12/22 14:28:56;;;;;;;7.07;4.70;;;11.10;99.90;;;;;;4930822;29;20946;-72
2022/12/22 14:31:23;;;;;;;3.33;1.80;;;11.10;99.90;;;;;;4931076;29;20490;-72
2022/12/22 14:33:54;;;;;;;8.67;3.00;;;11.00;99.90;;;;;;4931228;29;20833;-72
2022/12/22 14:36:23;;;;;;;5.70;2.77;;;11.00;99.90;;;;;;4929208;29;20502;-73
2022/12/22 14:38:52;;;;;;;5.83;2.50;;;11.00;99.90;;;;;;4930908;29;20553;-75
2022/12/22 14:41:42;;;;;;;8.03;2.73;;;11.00;99.90;;;;;;4930392;29;20474;-72
2022/12/22 14:44:15;;;;;;;4.63;2.30;;;11.00;99.90;;;;;;4930921;29;20466;-72
2022/12/22 14:46:43;;;;;;;9.67;4.60;;;11.00;99.90;;;;;;4929575;29;20446;-73
2022/12/22 14:49:19;;;;;;;3.03;2.00;;;11.00;99.90;;;;;;4931068;29;20485;-73
2022/12/22 14:51:54;;;;;;;7.70;2.20;;;11.10;99.90;;;;;;4930945;29;20478;-72
2022/12/22 14:54:25;;;;;;;6.07;2.20;;;11.10;99.90;;;;;;4930812;29;20473;-72
2022/12/22 14:56:54;;;;;;;8.33;2.17;;;11.10;99.90;;;;;;4930287;29;20489;-72
2022/12/22 14:59:25;;;;;;;7.03;2.07;;;11.20;99.90;;;;;;4930533;29;20476;-72
2022/12/22 15:02:00;;;;;;;5.53;2.20;;;11.10;99.90;;;;;;4930610;29;20490;-64
2022/12/22 15:04:27;;;;;;;6.50;3.67;;;11.20;99.90;;;;;;4930367;29;20457;-69
2022/12/22 15:07:05;;;;;;;6.60;2.80;;;11.20;99.90;;;;;;4930030;29;20458;-65
2022/12/22 15:09:32;;;;;;;4.43;2.10;;;11.20;99.90;;;;;;4930203;29;20468;-65
2022/12/22 15:12:05;;;;;;;7.53;1.93;;;11.20;99.90;;;;;;4930051;29;20866;-65
2022/12/22 15:14:36;;;;;;;5.27;1.90;;;11.20;99.90;;;;;;4930361;29;20857;-65
2022/12/22 15:17:04;;;;;;;7.27;2.30;;;11.20;99.90;;;;;;4929828;29;20458;-65
2022/12/22 15:19:33;;;;;;;4.30;2.57;;;11.20;99.90;;;;;;4930314;29;20473;-73
2022/12/22 15:22:01;;;;;;;7.40;2.30;;;11.20;99.90;;;;;;4930480;29;20471;-74
2022/12/22 15:24:28;;;;;;;9.43;3.27;;;11.20;99.90;;;;;;4930137;29;20963;-73
2022/12/22 15:26:55;;;;;;;13.80;4.13;;;11.20;99.90;;;;;;4929629;29;20458;-72
2022/12/22 15:29:22;;;;;;;14.13;5.80;;;11.20;99.90;;;;;;4930328;29;20462;-72
2022/12/22 15:31:50;;;;;;;8.10;2.30;;;11.20;99.90;;;;;;4930449;29;20846;-72
2022/12/22 15:34:24;;;;;;;16.73;6.90;;;11.20;99.90;;;;;;4930289;29;20467;-72
2022/12/22 15:36:52;;;;;;;13.37;4.50;;;11.20;99.90;;;;;;4929077;29;20441;-73
2022/12/22 15:39:21;;;;;;;7.13;3.23;;;11.10;99.90;;;;;;4929608;29;20457;-72
2022/12/22 15:41:48;;;;;;;9.27;3.60;;;11.10;99.90;;;;;;4929236;29;21063;-64
2022/12/22 15:44:15;;;;;;;12.17;2.67;;;11.10;99.90;;;;;;4915827;29;20477;-63
2022/12/22 15:46:44;;;;;;;12.63;3.00;;;11.10;99.90;;;;;;4929384;29;20450;-72
2022/12/22 15:49:18;;;;;;;9.32;2.78;;;11.10;99.90;;;;;;4928951;29;20443;-73
2022/12/22 15:51:48;;;;;;;8.63;2.77;;;11.30;99.90;;;;;;4929861;29;20230;-73
2022/12/22 15:54:16;;;;;;;10.30;2.93;;;11.30;99.90;;;;;;4930247;29;20462;-73
2022/12/22 15:56:44;;;;;;;10.60;3.33;;;11.30;99.90;;;;;;4929348;29;20872;-73
2022/12/22 15:59:16;;;;;;;13.47;5.97;;;11.20;99.90;;;;;;4929900;29;20466;-73
2022/12/22 16:01:43;;;;;;;12.20;2.80;;;11.20;99.90;;;;;;4929598;29;20914;-73
2022/12/22 16:04:10;;;;;;;12.63;3.60;;;11.20;99.90;;;;;;4928747;29;20552;-72
2022/12/22 16:06:38;;;;;;;12.80;3.30;;;11.10;99.90;;;;;;4928160;29;20454;-73
2022/12/22 16:09:09;;;;;;;8.43;2.53;;;11.10;99.90;;;;;;4929385;29;20453;-74
2022/12/22 16:11:38;;;;;;;9.07;3.27;;;11.10;99.90;;;;;;4928948;29;20474;-73
2022/12/22 16:14:05;;;;;;;5.30;2.43;;;11.10;99.90;;;;;;4926403;29;20522;-73
2022/12/22 16:16:32;;;;;;;11.67;4.10;;;11.10;99.90;;;;;;4928005;29;20501;-73
2022/12/22 16:18:59;;;;;;;9.60;2.83;;;11.10;99.90;;;;;;4929587;29;20842;-73
2022/12/22 16:21:31;;;;;;;5.77;2.50;;;11.20;99.90;;;;;;4929679;29;20856;-73
2022/12/22 16:24:02;;;;;;;8.10;2.57;;;11.10;99.90;;;;;;4930234;29;20461;-72
2022/12/22 16:26:29;;;;;;;9.13;3.17;;;11.10;99.90;;;;;;4929202;29;20465;-74
2022/12/22 16:28:57;;;;;;;12.87;2.90;;;11.10;99.90;;;;;;4929927;29;20458;-73
2022/12/22 16:31:25;;;;;;;9.67;3.20;;;11.10;99.90;;;;;;4929666;29;20478;-73
2022/12/22 16:33:52;;;;;;;6.90;2.60;;;11.10;99.90;;;;;;4928688;29;20939;-74
2022/12/22 16:36:19;;;;;;;7.60;2.50;;;11.10;99.90;;;;;;4946496;29;20493;-72
2022/12/22 16:38:47;;;;;;;9.23;3.27;;;11.10;99.90;;;;;;4949562;29;20462;-72
2022/12/22 16:41:21;;;;;;;4.90;2.30;;;11.00;99.90;;;;;;4948973;29;20458;-72
2022/12/22 16:43:48;;;;;;;8.27;3.37;;;11.00;99.90;;;;;;4911387;29;20459;-73
2022/12/22 16:46:17;;;;;;;5.47;2.53;;;11.00;99.90;;;;;;4910005;29;20471;-72
2022/12/22 16:48:47;;;;;;;9.32;2.40;;;11.00;99.90;;;;;;4908845;29;20454;-73
2022/12/22 16:51:20;;;;;;;10.70;2.97;;;11.20;99.90;;;;;;4919205;29;20250;-72
2022/12/22 16:53:47;;;;;;;6.50;2.17;;;11.20;99.90;;;;;;4929478;29;20445;-72
2022/12/22 16:56:19;;;;;;;6.83;2.47;;;11.20;99.90;;;;;;4927637;29;20504;-74
2022/12/22 16:58:46;;;;;;;6.63;2.33;;;11.20;99.90;;;;;;4927926;29;20466;-74
2022/12/22 17:01:31;;;;;;;7.60;2.83;;;11.20;99.90;;;;;;4940766;29;21047;-74
2022/12/22 17:04:02;;;;;;;6.60;2.67;;;11.10;99.90;;;;;;4946708;28;20469;-74
2022/12/22 17:06:28;;;;;;;10.80;3.40;;;11.10;99.90;;;;;;4946510;29;20456;-74
2022/12/22 17:08:55;;;;;;;6.10;2.53;;;11.00;99.90;;;;;;4947373;29;20453;-75
2022/12/22 17:11:28;;;;;;;12.17;2.80;;;10.90;99.90;;;;;;4947202;29;21110;-74
2022/12/22 17:14:05;;;;;;;10.60;2.50;;;10.90;99.90;;;;;;4929560;29;21205;-74
2022/12/22 17:16:32;;;;;;;6.77;2.80;;;10.80;99.90;;;;;;4928809;29;20482;-72
2022/12/22 17:18:59;;;;;;;12.57;2.73;;;10.80;99.90;;;;;;4928965;29;20488;-72
2022/12/22 17:21:28;;;;;;;9.00;3.40;;;10.80;99.90;;;;;;4929226;29;20513;-72
2022/12/22 17:24:02;;;;;;;8.83;3.17;;;10.80;99.90;;;;;;4928873;29;20494;-72
2022/12/22 17:26:33;;;;;;;9.13;2.83;;;10.70;99.90;;;;;;4928554;29;20470;-72
2022/12/22 17:29:00;;;;;;;9.30;2.53;;;10.70;99.90;;;;;;4927300;29;20447;-76
2022/12/22 17:31:27;;;;;;;6.33;2.73;;;10.70;99.90;;;;;;4926594;29;20478;-67
2022/12/22 17:33:54;;;;;;;12.17;3.43;;;10.70;99.90;;;;;;4926171;29;20458;-72
2022/12/22 17:36:29;;;;;;;11.80;3.70;;;10.70;99.90;;;;;;4926986;29;21041;-73
2022/12/22 17:38:56;;;;;;;15.60;2.87;;;10.70;99.90;;;;;;4928260;29;20457;-72
2022/12/22 17:41:26;;;;;;;11.43;2.80;;;10.60;99.90;;;;;;4926916;29;20474;-72
2022/12/22 17:43:54;;;;;;;15.13;2.97;;;10.70;99.90;;;;;;4927697;29;20467;-73
2022/12/22 17:46:22;;;;;;;13.87;3.30;;;10.70;99.90;;;;;;4927264;29;20458;-72
2022/12/22 17:48:49;;;;;;;14.57;3.00;;;10.60;99.90;;;;;;4928413;29;20465;-73
2022/12/22 17:51:18;;;;;;;11.57;3.90;;;10.60;99.90;;;;;;4928040;29;20479;-72
2022/12/22 17:53:46;;;;;;;10.00;2.93;;;10.60;99.90;;;;;;4928237;29;20462;-72
2022/12/22 17:56:17;;;;;;;12.87;4.20;;;10.60;99.90;;;;;;4927254;29;20498;-72
2022/12/22 17:58:43;;;;;;;8.83;3.30;;;10.60;99.90;;;;;;4927808;29;20458;-72
2022/12/22 18:01:25;;;;;;;8.00;3.90;;;10.50;99.90;;;;;;4927695;29;20490;-73
2022/12/22 18:03:52;;;;;;;12.50;3.80;;;10.50;99.90;;;;;;4928207;29;20461;-71
2022/12/22 18:06:21;;;;;;;13.83;4.43;;;10.50;99.90;;;;;;4927168;29;20450;-73
2022/12/22 18:08:49;;;;;;;13.83;3.87;;;10.50;99.90;;;;;;4928016;29;20965;-71
2022/12/22 18:11:16;;;;;;;18.43;5.00;;;10.50;99.90;;;;;;4930205;29;20482;-72
2022/12/22 18:13:43;;;;;;;12.70;5.17;;;10.50;99.90;;;;;;4931684;29;20450;-72